Time;durP1;ratioP1;P1;durP2;ratioP2;P2;SDS_P1;SDS_P2;PMS_P1;PMS_P2;Temp;Humidity;BMP_temperature;BMP_pressure;BME280_temperature;BME280_humidity;BME280_pressure;Samples;Min_cycle;Max_cycle;Signal;HPM_P1;HPM_P2
2023/09/16 00:02:21;;;;;;;;;;;;;;;;;;6179633;23;19923;-88
2023/09/16 00:04:48;;;;;;;;;;;;;;;;;;6178962;23;19916;-88
2023/09/16 00:07:14;;;;;;;;;;;;;;;;;;6152607;23;19967;-89
2023/09/16 00:09:40;;;;;;;;;;;;;;;;;;6152826;23;19908;-88
2023/09/16 00:12:06;;;;;;;;;;;;;;;;;;6178965;23;20354;-88
2023/09/16 00:14:32;;;;;;;;;;;;;;;;;;6177800;23;19904;-88
2023/09/16 00:17:00;;;;;;;;;;;;;;;;;;6178739;23;20224;-88
2023/09/16 00:19:26;;;;;;;;;;;;;;;;;;6152556;23;19909;-88
2023/09/16 00:21:52;;;;;;;;;;;;;;;;;;6152222;23;19904;-88
2023/09/16 00:24:18;;;;;;;;;;;;;;;;;;6153187;23;19919;-88
2023/09/16 00:26:44;;;;;;;;;;;;;;;;;;6154718;23;19905;-89
2023/09/16 00:29:10;;;;;;;;;;;;;;;;;;6154767;23;19908;-88
2023/09/16 00:31:36;;;;;;;;;;;;;;;;;;6154171;23;20310;-88
2023/09/16 00:34:02;;;;;;;;;;;;;;;;;;6154260;23;19904;-89
2023/09/16 00:36:28;;;;;;;;;;;;;;;;;;6154220;23;19904;-88
2023/09/16 00:38:54;;;;;;;;;;;;;;;;;;6180625;23;19989;-89
2023/09/16 00:41:20;;;;;;;;;;;;;;;;;;6154381;23;19909;-88
2023/09/16 00:43:46;;;;;;;;;;;;;;;;;;6155863;23;19923;-89
2023/09/16 00:46:12;;;;;;;;;;;;;;;;;;6152788;23;19927;-88
2023/09/16 00:48:38;;;;;;;;;;;;;;;;;;6153600;23;19915;-88
2023/09/16 00:51:04;;;;;;;;;;;;;;;;;;6153704;23;19904;-88
2023/09/16 00:53:30;;;;;;;;;;;;;;;;;;6156557;22;20040;-87
2023/09/16 00:55:56;;;;;;;;;;;;;;;;;;6154120;23;20319;-88
2023/09/16 00:58:22;;;;;;;;;;;;;;;;;;6158536;23;19916;-91
2023/09/16 01:00:48;;;;;;;;;;;;;;;;;;6161448;23;19908;-91
2023/09/16 01:03:14;;;;;;;;;;;;;;;;;;6160640;23;19908;-89
2023/09/16 01:05:40;;;;;;;;;;;;;;;;;;6158126;23;20328;-91
2023/09/16 01:08:07;;;;;;;;;;;;;;;;;;6159613;23;19916;-91
2023/09/16 01:10:33;;;;;;;;;;;;;;;;;;6160816;23;19904;-91
2023/09/16 01:12:59;;;;;;;;;;;;;;;;;;6162369;23;19980;-92
2023/09/16 01:15:27;;;;;;;;;;;;;;;;;;6160122;23;20398;-90
2023/09/16 01:17:53;;;;;;;;;;;;;;;;;;6158312;23;19995;-92
2023/09/16 01:20:19;;;;;;;;;;;;;;;;;;6157859;23;19913;-91
2023/09/16 01:22:45;;;;;;;;;;;;;;;;;;6161603;23;20327;-93
2023/09/16 01:25:11;;;;;;;;;;;;;;;;;;6160385;23;19908;-92
2023/09/16 01:27:37;;;;;;;;;;;;;;;;;;6159914;23;19915;-92
2023/09/16 01:30:05;;;;;;;;;;;;;;;;;;6185975;23;20347;-92
2023/09/16 01:32:31;;;;;;;;;;;;;;;;;;6161356;23;19904;-92
2023/09/16 01:34:57;;;;;;;;;;;;;;;;;;6160987;23;19908;-92
2023/09/16 01:37:23;;;;;;;;;;;;;;;;;;6161189;23;19920;-91
2023/09/16 01:39:49;;;;;;;;;;;;;;;;;;6162341;23;19909;-93
2023/09/16 01:42:15;;;;;;;;;;;;;;;;;;6162671;23;19904;-91
2023/09/16 01:44:41;;;;;;;;;;;;;;;;;;6163418;23;19959;-92
2023/09/16 01:47:08;;;;;;;;;;;;;;;;;;6162924;23;19908;-92
2023/09/16 01:49:33;;;;;;;;;;;;;;;;;;6162612;23;19972;-92
2023/09/16 01:51:59;;;;;;;;;;;;;;;;;;6161312;23;19908;-93
2023/09/16 01:54:25;;;;;;;;;;;;;;;;;;6167956;23;19920;-92
2023/09/16 01:56:51;;;;;;;;;;;;;;;;;;6160896;23;19915;-88
2023/09/16 01:59:17;;;;;;;;;;;;;;;;;;6153866;23;19989;-88
2023/09/16 02:01:45;;;;;;;;;;;;;;;;;;6154334;23;19962;-88
2023/09/16 02:04:10;;;;;;;;;;;;;;;;;;6152707;23;19915;-87
2023/09/16 02:06:36;;;;;;;;;;;;;;;;;;6152689;23;19909;-89
2023/09/16 02:09:02;;;;;;;;;;;;;;;;;;6153673;23;20265;-88
2023/09/16 02:11:30;;;;;;;;;;;;;;;;;;6153957;23;20394;-89
2023/09/16 02:13:56;;;;;;;;;;;;;;;;;;6152830;23;19960;-87
2023/09/16 02:16:22;;;;;;;;;;;;;;;;;;6153928;23;20054;-88
2023/09/16 02:18:48;;;;;;;;;;;;;;;;;;6150798;23;19978;-88
2023/09/16 02:21:15;;;;;;;;;;;;;;;;;;6179280;23;20301;-90
2023/09/16 02:23:41;;;;;;;;;;;;;;;;;;6153397;23;19913;-88
2023/09/16 02:26:06;;;;;;;;;;;;;;;;;;6154190;23;19908;-88
2023/09/16 02:28:32;;;;;;;;;;;;;;;;;;6153457;23;19916;-88
2023/09/16 02:30:59;;;;;;;;;;;;;;;;;;6153987;23;19904;-88
2023/09/16 02:33:25;;;;;;;;;;;;;;;;;;6153809;23;19904;-89
2023/09/16 02:35:50;;;;;;;;;;;;;;;;;;6152818;23;19942;-88
2023/09/16 02:38:17;;;;;;;;;;;;;;;;;;6153996;23;19908;-89
2023/09/16 02:40:43;;;;;;;;;;;;;;;;;;6153161;23;19962;-88
2023/09/16 02:43:09;;;;;;;;;;;;;;;;;;6153365;23;19999;-88
2023/09/16 02:45:35;;;;;;;;;;;;;;;;;;6153931;23;19915;-88
2023/09/16 02:48:01;;;;;;;;;;;;;;;;;;6153845;23;19904;-89
2023/09/16 02:50:27;;;;;;;;;;;;;;;;;;6152990;23;19920;-88
2023/09/16 02:52:52;;;;;;;;;;;;;;;;;;6179478;23;19995;-88
2023/09/16 02:55:19;;;;;;;;;;;;;;;;;;6156545;23;19920;-88
2023/09/16 02:57:45;;;;;;;;;;;;;;;;;;6152639;23;20030;-88
2023/09/16 03:00:10;;;;;;;;;;;;;;;;;;6154018;23;19936;-88
2023/09/16 03:02:36;;;;;;;;;;;;;;;;;;6153304;23;20151;-87
2023/09/16 03:05:03;;;;;;;;;;;;;;;;;;6154201;23;20516;-88
2023/09/16 03:07:29;;;;;;;;;;;;;;;;;;6152488;23;19919;-87
2023/09/16 03:09:55;;;;;;;;;;;;;;;;;;6153613;23;19962;-87
2023/09/16 03:12:22;;;;;;;;;;;;;;;;;;6152655;23;19905;-87
2023/09/16 03:14:48;;;;;;;;;;;;;;;;;;6151558;23;19904;-87
2023/09/16 03:17:14;;;;;;;;;;;;;;;;;;6152963;23;20286;-87
2023/09/16 03:19:40;;;;;;;;;;;;;;;;;;6152691;23;19951;-88
2023/09/16 03:22:06;;;;;;;;;;;;;;;;;;6152945;23;20346;-88
2023/09/16 03:24:32;;;;;;;;;;;;;;;;;;6154095;23;19915;-87
2023/09/16 03:27:01;;;;;;;;;;;;;;;;;;6153029;23;19915;-87
2023/09/16 03:29:27;;;;;;;;;;;;;;;;;;6153951;23;20302;-88
2023/09/16 03:31:53;;;;;;;;;;;;;;;;;;6153660;23;19904;-88
2023/09/16 03:34:19;;;;;;;;;;;;;;;;;;6151762;23;19942;-87
2023/09/16 03:36:45;;;;;;;;;;;;;;;;;;6152140;23;19908;-88
2023/09/16 03:39:11;;;;;;;;;;;;;;;;;;6152973;23;20238;-88
2023/09/16 03:41:37;;;;;;;;;;;;;;;;;;6152800;23;19908;-88
2023/09/16 03:44:11;;;;;;;;;;;;;;;;;;6153362;23;19908;-88
2023/09/16 03:46:36;;;;;;;;;;;;;;;;;;6153040;23;19912;-88
2023/09/16 03:49:02;;;;;;;;;;;;;;;;;;6152179;23;19928;-88
2023/09/16 03:51:28;;;;;;;;;;;;;;;;;;6152607;23;20025;-88
2023/09/16 03:53:54;;;;;;;;;;;;;;;;;;6155043;22;19951;-88
2023/09/16 03:56:20;;;;;;;;;;;;;;;;;;6154395;23;19908;-88
2023/09/16 03:58:46;;;;;;;;;;;;;;;;;;6154371;23;19909;-87
2023/09/16 04:01:12;;;;;;;;;;;;;;;;;;6154689;23;19979;-88
2023/09/16 04:03:38;;;;;;;;;;;;;;;;;;6155173;23;20455;-87
2023/09/16 04:06:04;;;;;;;;;;;;;;;;;;6153676;23;19935;-88
2023/09/16 04:08:30;;;;;;;;;;;;;;;;;;6155531;23;19927;-88
2023/09/16 04:10:57;;;;;;;;;;;;;;;;;;6153840;23;19927;-87
2023/09/16 04:13:23;;;;;;;;;;;;;;;;;;6153814;23;20074;-87
2023/09/16 04:15:49;;;;;;;;;;;;;;;;;;6154786;23;19955;-87
2023/09/16 04:18:15;;;;;;;;;;;;;;;;;;6155872;23;20290;-88
2023/09/16 04:20:41;;;;;;;;;;;;;;;;;;6155390;23;19908;-88
2023/09/16 04:23:08;;;;;;;;;;;;;;;;;;6155491;23;19908;-88
2023/09/16 04:25:35;;;;;;;;;;;;;;;;;;6155206;23;19918;-88
2023/09/16 04:28:02;;;;;;;;;;;;;;;;;;6158752;23;20562;-90
2023/09/16 04:30:28;;;;;;;;;;;;;;;;;;6160529;23;19908;-92
2023/09/16 04:32:54;;;;;;;;;;;;;;;;;;6187267;23;19954;-92
2023/09/16 04:35:20;;;;;;;;;;;;;;;;;;6160471;23;19915;-92
2023/09/16 04:37:46;;;;;;;;;;;;;;;;;;6160357;23;19987;-89
2023/09/16 04:40:12;;;;;;;;;;;;;;;;;;6161005;23;19904;-91
2023/09/16 04:42:38;;;;;;;;;;;;;;;;;;6160225;23;19904;-89
2023/09/16 04:45:04;;;;;;;;;;;;;;;;;;6160491;23;19919;-91
2023/09/16 04:47:30;;;;;;;;;;;;;;;;;;6160315;23;19904;-91
2023/09/16 04:49:56;;;;;;;;;;;;;;;;;;6187830;23;19939;-91
2023/09/16 04:52:22;;;;;;;;;;;;;;;;;;6160205;23;20389;-93
2023/09/16 04:54:48;;;;;;;;;;;;;;;;;;6164129;22;19923;-92
2023/09/16 04:57:14;;;;;;;;;;;;;;;;;;6163005;23;19912;-91
2023/09/16 04:59:40;;;;;;;;;;;;;;;;;;6186309;23;20345;-92
2023/09/16 05:02:06;;;;;;;;;;;;;;;;;;6186432;23;19928;-92
2023/09/16 05:04:32;;;;;;;;;;;;;;;;;;6159838;23;19908;-93
2023/09/16 05:06:58;;;;;;;;;;;;;;;;;;6160318;23;19911;-92
2023/09/16 05:09:24;;;;;;;;;;;;;;;;;;6158330;23;19904;-91
2023/09/16 05:11:50;;;;;;;;;;;;;;;;;;6159446;23;19957;-93
2023/09/16 05:14:16;;;;;;;;;;;;;;;;;;6157114;23;19935;-92
2023/09/16 05:16:49;;;;;;;;;;;;;;;;;;6158228;23;19909;-92
2023/09/16 05:19:15;;;;;;;;;;;;;;;;;;6159346;23;19934;-92
2023/09/16 05:21:41;;;;;;;;;;;;;;;;;;6158386;23;19904;-92
2023/09/16 05:24:07;;;;;;;;;;;;;;;;;;6160177;23;19908;-91
2023/09/16 05:26:33;;;;;;;;;;;;;;;;;;6161390;23;19911;-87
2023/09/16 05:28:59;;;;;;;;;;;;;;;;;;6155281;23;19912;-90
2023/09/16 05:31:25;;;;;;;;;;;;;;;;;;6155301;23;19975;-89
2023/09/16 05:33:51;;;;;;;;;;;;;;;;;;6155065;23;19908;-89
2023/09/16 05:36:17;;;;;;;;;;;;;;;;;;6154850;23;19966;-88
2023/09/16 05:38:43;;;;;;;;;;;;;;;;;;6155153;23;19908;-88
2023/09/16 05:41:09;;;;;;;;;;;;;;;;;;6155042;23;20613;-89
2023/09/16 05:43:35;;;;;;;;;;;;;;;;;;6155192;23;19950;-89
2023/09/16 05:46:01;;;;;;;;;;;;;;;;;;6155108;23;19909;-89
2023/09/16 05:48:27;;;;;;;;;;;;;;;;;;6155336;23;19908;-88
2023/09/16 05:50:54;;;;;;;;;;;;;;;;;;6153447;23;20385;-88
2023/09/16 05:53:20;;;;;;;;;;;;;;;;;;6155594;23;19908;-89
2023/09/16 05:55:46;;;;;;;;;;;;;;;;;;6157603;22;19930;-88
2023/09/16 05:58:12;;;;;;;;;;;;;;;;;;6156401;23;19912;-89
2023/09/16 06:00:38;;;;;;;;;;;;;;;;;;6155909;23;19963;-89
2023/09/16 06:03:04;;;;;;;;;;;;;;;;;;6155103;23;20630;-89
2023/09/16 06:05:30;;;;;;;;;;;;;;;;;;6154806;23;19943;-89
2023/09/16 06:07:56;;;;;;;;;;;;;;;;;;6154833;23;19912;-88
2023/09/16 06:10:22;;;;;;;;;;;;;;;;;;6154871;23;20505;-89
2023/09/16 06:12:48;;;;;;;;;;;;;;;;;;6154138;23;19947;-89
2023/09/16 06:15:14;;;;;;;;;;;;;;;;;;6154953;23;19904;-89
2023/09/16 06:17:40;;;;;;;;;;;;;;;;;;6154588;23;19962;-89
2023/09/16 06:20:06;;;;;;;;;;;;;;;;;;6154563;23;19912;-89
2023/09/16 06:22:32;;;;;;;;;;;;;;;;;;6154455;23;19909;-89
2023/09/16 06:24:58;;;;;;;;;;;;;;;;;;6154231;23;19911;-89
2023/09/16 06:27:24;;;;;;;;;;;;;;;;;;6154433;23;19947;-89
2023/09/16 06:29:50;;;;;;;;;;;;;;;;;;6154332;23;19927;-89
2023/09/16 06:32:17;;;;;;;;;;;;;;;;;;6154743;23;19935;-89
2023/09/16 06:34:43;;;;;;;;;;;;;;;;;;6154468;23;19908;-89
2023/09/16 06:37:09;;;;;;;;;;;;;;;;;;6153525;23;19914;-89
2023/09/16 06:39:35;;;;;;;;;;;;;;;;;;6152320;23;19908;-88
2023/09/16 06:42:01;;;;;;;;;;;;;;;;;;6152962;23;19971;-89
2023/09/16 06:44:27;;;;;;;;;;;;;;;;;;6153207;23;19939;-88
2023/09/16 06:46:53;;;;;;;;;;;;;;;;;;6152760;23;19904;-88
2023/09/16 06:49:19;;;;;;;;;;;;;;;;;;6153614;23;20377;-88
2023/09/16 06:51:45;;;;;;;;;;;;;;;;;;6178721;23;20086;-88
2023/09/16 06:54:11;;;;;;;;;;;;;;;;;;6153826;23;20405;-89
2023/09/16 06:56:37;;;;;;;;;;;;;;;;;;6155038;23;19916;-88
2023/09/16 06:59:03;;;;;;;;;;;;;;;;;;6153696;23;20612;-88
2023/09/16 07:01:29;;;;;;;;;;;;;;;;;;6152239;23;19935;-88
2023/09/16 07:03:55;;;;;;;;;;;;;;;;;;6153789;23;20007;-89
2023/09/16 07:06:21;;;;;;;;;;;;;;;;;;6152609;23;19915;-88
2023/09/16 07:08:55;;;;;;;;;;;;;;;;;;6154839;23;20465;-88
2023/09/16 07:11:21;;;;;;;;;;;;;;;;;;6153791;23;19908;-88
2023/09/16 07:13:47;;;;;;;;;;;;;;;;;;6151793;23;19912;-88
2023/09/16 07:16:13;;;;;;;;;;;;;;;;;;6179464;23;19912;-89
2023/09/16 07:18:39;;;;;;;;;;;;;;;;;;6152882;23;19908;-88
2023/09/16 07:21:05;;;;;;;;;;;;;;;;;;6152947;23;20220;-88
2023/09/16 07:23:31;;;;;;;;;;;;;;;;;;6152976;23;20429;-88
2023/09/16 07:25:57;;;;;;;;;;;;;;;;;;6153172;23;19908;-88
2023/09/16 07:28:23;;;;;;;;;;;;;;;;;;6153441;23;19908;-86
2023/09/16 07:30:49;;;;;;;;;;;;;;;;;;6153656;23;19915;-88
2023/09/16 07:33:15;;;;;;;;;;;;;;;;;;6153004;23;19991;-88
2023/09/16 07:35:41;;;;;;;;;;;;;;;;;;6153322;23;19908;-87
2023/09/16 07:38:08;;;;;;;;;;;;;;;;;;6153367;23;19912;-88
2023/09/16 07:40:35;;;;;;;;;;;;;;;;;;6180570;23;19911;-88
2023/09/16 07:43:01;;;;;;;;;;;;;;;;;;6154249;23;19904;-88
2023/09/16 07:45:27;;;;;;;;;;;;;;;;;;6154002;23;20319;-87
2023/09/16 07:47:53;;;;;;;;;;;;;;;;;;6157415;23;19908;-90
2023/09/16 07:50:19;;;;;;;;;;;;;;;;;;6156432;23;20072;-91
2023/09/16 07:52:45;;;;;;;;;;;;;;;;;;6157102;23;19912;-90
2023/09/16 07:55:11;;;;;;;;;;;;;;;;;;6157468;23;19927;-92
2023/09/16 07:57:37;;;;;;;;;;;;;;;;;;6157807;23;20692;-88
2023/09/16 08:00:07;;;;;;;;;;;;;;;;;;6154500;23;19940;-87
2023/09/16 08:02:33;;;;;;;;;;;;;;;;;;6154658;23;20353;-87
2023/09/16 08:04:59;;;;;;;;;;;;;;;;;;6154548;23;19963;-88
2023/09/16 08:07:25;;;;;;;;;;;;;;;;;;6154247;23;20286;-87
2023/09/16 08:09:51;;;;;;;;;;;;;;;;;;6154506;23;19904;-88
2023/09/16 08:12:19;;;;;;;;;;;;;;;;;;6154422;23;19908;-88
2023/09/16 08:14:45;;;;;;;;;;;;;;;;;;6152801;23;20294;-88
2023/09/16 08:17:11;;;;;;;;;;;;;;;;;;6153602;23;19912;-88
2023/09/16 08:19:37;;;;;;;;;;;;;;;;;;6153823;23;19904;-88
2023/09/16 08:22:03;;;;;;;;;;;;;;;;;;6152535;23;19931;-87
2023/09/16 08:24:30;;;;;;;;;;;;;;;;;;6153037;23;19927;-88
2023/09/16 08:26:55;;;;;;;;;;;;;;;;;;6178869;23;19931;-88
2023/09/16 08:29:21;;;;;;;;;;;;;;;;;;6153671;23;19904;-88
2023/09/16 08:31:47;;;;;;;;;;;;;;;;;;6152834;23;19908;-88
2023/09/16 08:34:20;;;;;;;;;;;;;;;;;;6152786;23;20349;-87
2023/09/16 08:36:46;;;;;;;;;;;;;;;;;;6152826;23;20358;-88
2023/09/16 08:39:12;;;;;;;;;;;;;;;;;;6179815;23;19908;-88
2023/09/16 08:41:38;;;;;;;;;;;;;;;;;;6153518;23;19908;-88
2023/09/16 08:44:10;;;;;;;;;;;;;;;;;;6152469;23;19984;-87
2023/09/16 08:46:37;;;;;;;;;;;;;;;;;;6155618;23;20410;-88
2023/09/16 08:49:03;;;;;;;;;;;;;;;;;;6154782;23;20331;-87
2023/09/16 08:51:29;;;;;;;;;;;;;;;;;;6154894;23;19910;-88
2023/09/16 08:53:55;;;;;;;;;;;;;;;;;;6156274;23;19904;-88
2023/09/16 08:56:21;;;;;;;;;;;;;;;;;;6156531;22;19912;-88
2023/09/16 08:58:47;;;;;;;;;;;;;;;;;;6154078;23;20002;-89
2023/09/16 09:01:16;;;;;;;;;;;;;;;;;;6154559;23;20304;-88
2023/09/16 09:03:42;;;;;;;;;;;;;;;;;;6156013;23;19904;-88
2023/09/16 09:06:10;;;;;;;;;;;;;;;;;;6154928;23;20393;-88
2023/09/16 09:08:36;;;;;;;;;;;;;;;;;;6154621;23;20428;-88
2023/09/16 09:11:02;;;;;;;;;;;;;;;;;;6152924;23;19920;-88
2023/09/16 09:13:27;;;;;;;;;;;;;;;;;;6152627;23;19908;-87
2023/09/16 09:15:56;;;;;;;;;;;;;;;;;;6154034;23;19908;-87
2023/09/16 09:18:22;;;;;;;;;;;;;;;;;;6154099;23;19912;-87
2023/09/16 09:20:48;;;;;;;;;;;;;;;;;;6153751;23;20342;-87
2023/09/16 09:23:14;;;;;;;;;;;;;;;;;;6155157;23;19916;-87
2023/09/16 09:25:43;;;;;;;;;;;;;;;;;;6153575;23;19908;-87
2023/09/16 09:28:13;;;;;;;;;;;;;;;;;;6178543;23;19916;-87
2023/09/16 09:30:39;;;;;;;;;;;;;;;;;;6153701;23;20394;-87
2023/09/16 09:33:05;;;;;;;;;;;;;;;;;;6153089;23;19935;-88
2023/09/16 09:35:31;;;;;;;;;;;;;;;;;;6153694;23;19935;-88
2023/09/16 09:37:57;;;;;;;;;;;;;;;;;;6181081;23;19912;-87
2023/09/16 09:40:24;;;;;;;;;;;;;;;;;;6155000;23;20334;-87
2023/09/16 09:42:50;;;;;;;;;;;;;;;;;;6154834;23;19918;-87
2023/09/16 09:45:21;;;;;;;;;;;;;;;;;;6180573;23;19908;-87
2023/09/16 09:47:47;;;;;;;;;;;;;;;;;;6155249;23;19935;-87
2023/09/16 09:50:13;;;;;;;;;;;;;;;;;;6154381;23;20334;-87
2023/09/16 09:52:39;;;;;;;;;;;;;;;;;;6156119;23;19908;-87
2023/09/16 09:55:05;;;;;;;;;;;;;;;;;;6156831;23;20688;-88
2023/09/16 09:57:31;;;;;;;;;;;;;;;;;;6159324;23;19920;-88
2023/09/16 09:59:57;;;;;;;;;;;;;;;;;;6155672;23;20317;-88
2023/09/16 10:02:23;;;;;;;;;;;;;;;;;;6154202;23;20149;-89
2023/09/16 10:04:49;;;;;;;;;;;;;;;;;;6157147;23;19904;-89
2023/09/16 10:07:17;;;;;;;;;;;;;;;;;;6158700;23;19954;-89
2023/09/16 10:09:43;;;;;;;;;;;;;;;;;;6160138;23;19958;-89
2023/09/16 10:12:15;;;;;;;;;;;;;;;;;;6160764;23;19909;-88
2023/09/16 10:14:48;;;;;;;;;;;;;;;;;;6159842;23;20322;-89
2023/09/16 10:17:14;;;;;;;;;;;;;;;;;;6158392;23;19908;-89
2023/09/16 10:19:40;;;;;;;;;;;;;;;;;;6161711;23;19908;-89
2023/09/16 10:22:06;;;;;;;;;;;;;;;;;;6160443;23;19911;-89
2023/09/16 10:24:32;;;;;;;;;;;;;;;;;;6155842;23;19942;-90
2023/09/16 10:26:58;;;;;;;;;;;;;;;;;;6155168;23;19976;-89
2023/09/16 10:29:24;;;;;;;;;;;;;;;;;;6153416;23;19932;-89
2023/09/16 10:31:50;;;;;;;;;;;;;;;;;;6154422;23;19916;-89
2023/09/16 10:34:16;;;;;;;;;;;;;;;;;;6154243;23;19908;-89
2023/09/16 10:36:42;;;;;;;;;;;;;;;;;;6154497;23;19904;-88
2023/09/16 10:39:08;;;;;;;;;;;;;;;;;;6154487;23;20366;-89
2023/09/16 10:41:34;;;;;;;;;;;;;;;;;;6153065;23;19959;-89
2023/09/16 10:44:00;;;;;;;;;;;;;;;;;;6152967;23;19990;-89
2023/09/16 10:46:26;;;;;;;;;;;;;;;;;;6154896;23;19904;-89
2023/09/16 10:48:52;;;;;;;;;;;;;;;;;;6153843;23;19908;-89
2023/09/16 10:51:18;;;;;;;;;;;;;;;;;;6154046;23;19908;-88
2023/09/16 10:53:43;;;;;;;;;;;;;;;;;;6155323;23;20029;-89
2023/09/16 10:56:09;;;;;;;;;;;;;;;;;;6153602;23;19983;-89
2023/09/16 10:58:35;;;;;;;;;;;;;;;;;;6182994;22;20488;-89
2023/09/16 11:01:01;;;;;;;;;;;;;;;;;;6154364;23;19946;-88
2023/09/16 11:03:30;;;;;;;;;;;;;;;;;;6155783;23;19991;-88
2023/09/16 11:05:57;;;;;;;;;;;;;;;;;;6184711;23;20307;-89
2023/09/16 11:08:23;;;;;;;;;;;;;;;;;;6156854;23;19915;-88
2023/09/16 11:10:49;;;;;;;;;;;;;;;;;;6152825;23;20504;-89
2023/09/16 11:13:15;;;;;;;;;;;;;;;;;;6152183;23;20536;-89
2023/09/16 11:15:41;;;;;;;;;;;;;;;;;;6152619;23;19983;-89
2023/09/16 11:18:07;;;;;;;;;;;;;;;;;;6155224;23;19913;-92
2023/09/16 11:20:33;;;;;;;;;;;;;;;;;;6155593;23;19909;-92
2023/09/16 11:22:59;;;;;;;;;;;;;;;;;;6156016;23;20046;-92
2023/09/16 11:25:25;;;;;;;;;;;;;;;;;;6156149;23;19909;-92
2023/09/16 11:27:51;;;;;;;;;;;;;;;;;;6154701;23;19908;-89
2023/09/16 11:30:17;;;;;;;;;;;;;;;;;;6153526;23;20330;-88
2023/09/16 11:32:43;;;;;;;;;;;;;;;;;;6180187;23;19916;-88
2023/09/16 11:35:12;;;;;;;;;;;;;;;;;;6152474;23;19908;-89
2023/09/16 11:37:38;;;;;;;;;;;;;;;;;;6152533;23;20058;-89
2023/09/16 11:40:07;;;;;;;;;;;;;;;;;;6153338;23;20314;-88
2023/09/16 11:42:33;;;;;;;;;;;;;;;;;;6152313;23;19911;-89
2023/09/16 11:44:59;;;;;;;;;;;;;;;;;;6153131;23;19904;-89
2023/09/16 11:47:25;;;;;;;;;;;;;;;;;;6151921;23;19905;-89
2023/09/16 11:49:51;;;;;;;;;;;;;;;;;;6152617;23;19915;-89
2023/09/16 11:52:17;;;;;;;;;;;;;;;;;;6151280;23;20311;-89
2023/09/16 11:54:43;;;;;;;;;;;;;;;;;;6152746;23;19915;-89
2023/09/16 11:57:11;;;;;;;;;;;;;;;;;;6154845;22;20533;-89
2023/09/16 11:59:37;;;;;;;;;;;;;;;;;;6152106;23;19962;-88
2023/09/16 12:02:03;;;;;;;;;;;;;;;;;;6178718;23;20340;-89
2023/09/16 12:04:36;;;;;;;;;;;;;;;;;;6151671;23;19959;-88
2023/09/16 12:07:02;;;;;;;;;;;;;;;;;;6152499;23;19905;-88
2023/09/16 12:09:28;;;;;;;;;;;;;;;;;;6151300;23;20024;-89
2023/09/16 12:11:54;;;;;;;;;;;;;;;;;;6152637;23;19940;-89
2023/09/16 12:14:20;;;;;;;;;;;;;;;;;;6150959;23;20334;-88
2023/09/16 12:16:46;;;;;;;;;;;;;;;;;;6152104;23;19904;-89
2023/09/16 12:19:12;;;;;;;;;;;;;;;;;;6151983;23;20310;-89
2023/09/16 12:21:38;;;;;;;;;;;;;;;;;;6153752;23;19911;-89
2023/09/16 12:24:05;;;;;;;;;;;;;;;;;;6153863;23;19908;-89
2023/09/16 12:26:31;;;;;;;;;;;;;;;;;;6153341;23;20323;-87
2023/09/16 12:28:57;;;;;;;;;;;;;;;;;;6153455;23;19919;-88
2023/09/16 12:31:23;;;;;;;;;;;;;;;;;;6153474;23;19911;-88
2023/09/16 12:33:54;;;;;;;;;;;;;;;;;;6154606;23;19904;-87
2023/09/16 12:36:19;;;;;;;;;;;;;;;;;;6153121;23;19958;-87
2023/09/16 12:38:45;;;;;;;;;;;;;;;;;;6154417;23;19995;-88
2023/09/16 12:41:14;;;;;;;;;;;;;;;;;;6156471;23;19935;-88
2023/09/16 12:43:40;;;;;;;;;;;;;;;;;;6152935;23;19912;-88
2023/09/16 12:46:08;;;;;;;;;;;;;;;;;;6152920;23;19940;-87
2023/09/16 12:48:33;;;;;;;;;;;;;;;;;;6153921;23;19908;-88
2023/09/16 12:50:59;;;;;;;;;;;;;;;;;;6153677;23;19915;-88
2023/09/16 12:53:25;;;;;;;;;;;;;;;;;;6153600;23;20293;-89
2023/09/16 12:55:51;;;;;;;;;;;;;;;;;;6153453;23;20429;-87
2023/09/16 12:58:21;;;;;;;;;;;;;;;;;;6155588;23;19916;-87
2023/09/16 13:00:47;;;;;;;;;;;;;;;;;;6154124;23;19908;-88
2023/09/16 13:03:13;;;;;;;;;;;;;;;;;;6153224;23;19917;-87
2023/09/16 13:05:39;;;;;;;;;;;;;;;;;;6152974;23;19926;-88
2023/09/16 13:08:05;;;;;;;;;;;;;;;;;;6154306;23;19915;-88
2023/09/16 13:10:31;;;;;;;;;;;;;;;;;;6152702;23;20331;-87
2023/09/16 13:12:57;;;;;;;;;;;;;;;;;;6152809;23;20242;-87
2023/09/16 13:15:23;;;;;;;;;;;;;;;;;;6152939;23;19980;-88
2023/09/16 13:17:55;;;;;;;;;;;;;;;;;;6153186;23;20314;-88
2023/09/16 13:20:27;;;;;;;;;;;;;;;;;;6152894;23;19919;-88
2023/09/16 13:22:53;;;;;;;;;;;;;;;;;;6153564;23;19928;-89
2023/09/16 13:25:19;;;;;;;;;;;;;;;;;;6179416;23;19926;-87
2023/09/16 13:27:45;;;;;;;;;;;;;;;;;;6154125;23;19924;-88
2023/09/16 13:30:11;;;;;;;;;;;;;;;;;;6151972;23;19916;-89
2023/09/16 13:32:37;;;;;;;;;;;;;;;;;;6153201;23;20378;-87
2023/09/16 13:35:03;;;;;;;;;;;;;;;;;;6152767;23;19908;-88
2023/09/16 13:37:31;;;;;;;;;;;;;;;;;;6153565;23;19912;-88
2023/09/16 13:39:57;;;;;;;;;;;;;;;;;;6154640;23;20346;-89
2023/09/16 13:42:23;;;;;;;;;;;;;;;;;;6153754;23;19936;-89
2023/09/16 13:44:49;;;;;;;;;;;;;;;;;;6153834;23;19906;-89
2023/09/16 13:47:15;;;;;;;;;;;;;;;;;;6155247;23;19908;-88
2023/09/16 13:49:48;;;;;;;;;;;;;;;;;;6158867;23;20246;-88
2023/09/16 13:52:14;;;;;;;;;;;;;;;;;;6159407;23;19908;-88
2023/09/16 13:54:41;;;;;;;;;;;;;;;;;;6160187;23;19963;-88
2023/09/16 13:57:06;;;;;;;;;;;;;;;;;;6160802;22;20547;-88
2023/09/16 13:59:32;;;;;;;;;;;;;;;;;;6162122;23;19916;-88
2023/09/16 14:02:02;;;;;;;;;;;;;;;;;;6160403;23;19904;-86
2023/09/16 14:04:28;;;;;;;;;;;;;;;;;;6160574;23;19919;-87
2023/09/16 14:06:54;;;;;;;;;;;;;;;;;;6158835;23;19905;-87
2023/09/16 14:09:20;;;;;;;;;;;;;;;;;;6161522;23;19904;-87
2023/09/16 14:11:46;;;;;;;;;;;;;;;;;;6160909;23;20243;-88
2023/09/16 14:14:13;;;;;;;;;;;;;;;;;;6160602;23;19986;-87
2023/09/16 14:16:39;;;;;;;;;;;;;;;;;;6158762;23;20258;-86
2023/09/16 14:19:07;;;;;;;;;;;;;;;;;;6184214;23;19908;-87
2023/09/16 14:21:36;;;;;;;;;;;;;;;;;;6155896;23;19912;-86
2023/09/16 14:24:02;;;;;;;;;;;;;;;;;;6157325;23;19912;-87
2023/09/16 14:26:34;;;;;;;;;;;;;;;;;;6154121;23;19908;-87
2023/09/16 14:31:52;;;;;;;;;;;;;;;;;;6167343;23;20265;-87
2023/09/16 14:34:35;;;;;;;;;;;;;;;;;;6183187;23;19915;-86
2023/09/16 14:37:01;;;;;;;;;;;;;;;;;;6153485;23;20253;-87
2023/09/16 14:39:26;;;;;;;;;;;;;;;;;;6152831;23;19904;-86
2023/09/16 14:41:52;;;;;;;;;;;;;;;;;;6152064;23;19905;-87
2023/09/16 14:44:18;;;;;;;;;;;;;;;;;;6151848;23;19908;-87
2023/09/16 14:46:44;;;;;;;;;;;;;;;;;;6153116;23;19992;-90
2023/09/16 14:49:10;;;;;;;;;;;;;;;;;;6156803;23;19916;-90
2023/09/16 14:51:40;;;;;;;;;;;;;;;;;;6154928;23;20213;-90
2023/09/16 14:54:06;;;;;;;;;;;;;;;;;;6156153;23;19948;-90
2023/09/16 14:56:32;;;;;;;;;;;;;;;;;;6158738;23;20335;-90
2023/09/16 14:58:58;;;;;;;;;;;;;;;;;;6154743;23;19922;-87
2023/09/16 15:01:24;;;;;;;;;;;;;;;;;;6152581;23;19979;-88
2023/09/16 15:03:50;;;;;;;;;;;;;;;;;;6153079;23;19947;-86
2023/09/16 15:06:18;;;;;;;;;;;;;;;;;;6152392;23;19943;-87
2023/09/16 15:08:44;;;;;;;;;;;;;;;;;;6152235;23;20002;-85
2023/09/16 15:11:10;;;;;;;;;;;;;;;;;;6152490;23;20365;-87
2023/09/16 15:13:36;;;;;;;;;;;;;;;;;;6150619;23;20555;-88
2023/09/16 15:16:06;;;;;;;;;;;;;;;;;;6151280;23;19908;-88
2023/09/16 15:18:39;;;;;;;;;;;;;;;;;;6153192;23;20045;-87
2023/09/16 15:21:06;;;;;;;;;;;;;;;;;;6150742;23;19905;-87
2023/09/16 15:23:32;;;;;;;;;;;;;;;;;;6150165;23;20334;-87
2023/09/16 15:25:59;;;;;;;;;;;;;;;;;;6150043;23;19984;-89
2023/09/16 15:28:26;;;;;;;;;;;;;;;;;;6153463;23;20308;-89
2023/09/16 15:30:52;;;;;;;;;;;;;;;;;;6152532;23;20326;-89
2023/09/16 15:33:18;;;;;;;;;;;;;;;;;;6156459;23;20094;-89
2023/09/16 15:35:44;;;;;;;;;;;;;;;;;;6152606;23;19940;-89
2023/09/16 15:38:10;;;;;;;;;;;;;;;;;;6151873;23;19916;-89
2023/09/16 15:40:57;;;;;;;;;;;;;;;;;;6154591;23;20345;-86
2023/09/16 15:43:22;;;;;;;;;;;;;;;;;;6179042;23;19904;-86
2023/09/16 15:45:48;;;;;;;;;;;;;;;;;;6153841;23;20222;-86
2023/09/16 15:48:14;;;;;;;;;;;;;;;;;;6153874;23;20262;-87
2023/09/16 15:50:40;;;;;;;;;;;;;;;;;;6153168;23;19915;-88
2023/09/16 15:53:06;;;;;;;;;;;;;;;;;;6153364;23;19986;-87
2023/09/16 15:55:32;;;;;;;;;;;;;;;;;;6155786;23;20010;-87
2023/09/16 15:58:00;;;;;;;;;;;;;;;;;;6186272;22;19991;-88
2023/09/16 16:00:26;;;;;;;;;;;;;;;;;;6158172;23;19918;-90
2023/09/16 16:02:52;;;;;;;;;;;;;;;;;;6158244;23;19948;-90
2023/09/16 16:05:18;;;;;;;;;;;;;;;;;;6158139;23;19958;-90
2023/09/16 16:07:44;;;;;;;;;;;;;;;;;;6159600;23;19983;-90
2023/09/16 16:10:15;;;;;;;;;;;;;;;;;;6163131;23;19904;-89
2023/09/16 16:12:43;;;;;;;;;;;;;;;;;;6162625;23;19909;-90
2023/09/16 16:15:09;;;;;;;;;;;;;;;;;;6162331;23;19904;-90
2023/09/16 16:17:35;;;;;;;;;;;;;;;;;;6162618;23;20014;-90
2023/09/16 16:20:01;;;;;;;;;;;;;;;;;;6163345;23;19944;-90
2023/09/16 16:22:27;;;;;;;;;;;;;;;;;;6163942;23;20307;-92
2023/09/16 16:24:53;;;;;;;;;;;;;;;;;;6163900;23;19916;-90
2023/09/16 16:27:19;;;;;;;;;;;;;;;;;;6162168;23;19912;-91
2023/09/16 16:29:46;;;;;;;;;;;;;;;;;;6160168;23;19908;-89
2023/09/16 16:32:14;;;;;;;;;;;;;;;;;;6162206;23;19904;-90
2023/09/16 16:34:40;;;;;;;;;;;;;;;;;;6161783;23;19920;-89
2023/09/16 16:37:06;;;;;;;;;;;;;;;;;;6162359;23;19976;-88
2023/09/16 16:39:32;;;;;;;;;;;;;;;;;;6162828;23;19918;-92
2023/09/16 16:41:58;;;;;;;;;;;;;;;;;;6163442;23;19904;-90
2023/09/16 16:44:24;;;;;;;;;;;;;;;;;;6163078;23;20323;-90